Latest Weather Observations for Noarlunga

IDS60901

Issued at 6:51 pm CDT Thursday 18 December 2014 (issued every 10 minutes, with the page automatically refreshed every 10 minutes)

About weather observations | Map of Adelaide area stations | Latest observations for Adelaide area | Other Formats
Station Details ID: 023885 Name: NOARLUNGA Lat: -35.16 Lon: 138.51 Height: 55.0 m
Data from the previous 72 hours. | See also: Recent months at Noarlunga
Date/Time
CDT
Tmp

°C
App
Tmp
°C
Dew
Point
°C
Rel
Hum
%
Delta-T

°C
Wind Press
QNH
hPa
Press
MSL
hPa
Rain
since
9 am
mm
Dir
 
Spd
km/h
Gust
km/h
Spd
kts
Gust
kts
18/06:30pm 20.2 15.5 7.6 44 6.5 WSW 22 33 12 18 - - 0.0
18/06:00pm 20.7 16.2 6.3 39 7.3 SW 19 33 10 18 - - 0.0
18/05:30pm 19.8 15.4 7.2 44 6.4 WSW 20 32 11 17 - - 0.0
18/05:00pm 20.5 16.4 8.8 47 6.2 WSW 20 28 11 15 - - 0.0
18/04:30pm 21.4 18.1 11.7 54 5.4 WSW 20 32 11 17 - - 0.0
18/04:00pm 21.0 16.6 10.5 51 5.7 WSW 24 37 13 20 - - 0.0
18/03:30pm 21.5 16.6 10.0 48 6.2 WSW 26 43 14 23 - - 0.0
18/03:00pm 21.5 17.2 10.9 51 5.8 WSW 24 37 13 20 - - 0.0
18/02:30pm 22.3 18.5 11.1 49 6.2 WSW 22 37 12 20 - - 0.0
18/02:00pm 21.6 17.7 10.7 50 6.0 W 22 35 12 19 - - 0.0
18/01:30pm 21.1 17.8 11.7 55 5.2 WSW 20 28 11 15 - - 0.0
18/01:00pm 20.7 17.5 11.3 55 5.2 WSW 19 30 10 16 - - 0.0
18/12:30pm 19.8 16.7 12.1 61 4.3 SW 20 35 11 19 - - 0.0
18/12:00pm 20.7 16.1 11.1 54 5.3 W 26 39 14 21 - - 0.0
18/11:30am 20.2 15.6 9.7 51 5.6 W 24 41 13 22 - - 0.0
18/11:00am 19.7 15.4 10.9 57 4.8 W 24 37 13 20 - - 0.0
18/10:30am 19.5 15.7 11.0 58 4.6 WNW 22 35 12 19 - - 0.0
18/10:00am 19.0 14.3 10.6 58 4.5 WNW 26 39 14 21 - - 0.0
18/09:30am 18.5 14.8 10.1 58 4.5 WNW 20 32 11 17 - - 0.0
18/09:00am 18.2 13.6 9.8 58 4.5 WNW 24 37 13 20 - - 0.0
18/08:30am 18.3 14.8 10.9 62 4.0 WNW 20 30 11 16 - - 0.0
18/08:00am 17.9 13.8 10.0 60 4.2 WNW 22 33 12 18 - - 0.0
18/07:30am 17.0 12.8 9.9 63 3.7 NW 22 37 12 20 - - 0.0
18/07:00am 17.0 12.7 9.4 61 4.0 WNW 22 35 12 19 - - 0.0
18/06:30am 16.4 12.7 9.6 64 3.6 WNW 19 28 10 15 - - 0.0
18/06:00am 16.1 13.2 9.5 65 3.4 WNW 15 24 8 13 - - 0.0
18/05:30am 16.2 13.7 9.8 66 3.4 WNW 13 20 7 11 - - 0.0
18/05:00am 15.6 13.5 8.1 61 3.8 W 9 17 5 9 - - 0.0
18/04:30am 14.5 12.9 8.2 66 3.2 W 6 9 3 5 - - 0.0
18/04:00am 13.9 13.6 8.5 70 2.7 CALM 0 2 0 1 - - 0.0
18/03:30am 13.2 12.9 8.5 73 2.4 CALM 0 0 0 0 - - 0.0
18/03:00am 12.8 12.3 7.9 72 2.4 CALM 0 0 0 0 - - 0.0
18/02:30am 12.9 12.4 7.8 71 2.5 CALM 0 2 0 1 - - 0.0
18/02:00am 13.2 12.6 7.6 69 2.7 CALM 0 0 0 0 - - 0.0
18/01:30am 13.5 12.2 7.7 68 2.9 E 4 6 2 3 - - 0.0
18/01:00am 13.9 12.3 7.9 67 3.0 ESE 6 7 3 4 - - 0.0
18/12:30am 14.8 13.1 8.3 65 3.3 E 7 9 4 5 - - 0.0
18/12:00am 14.8 12.7 8.1 64 3.4 E 9 15 5 8 - - 0.0
 
Date/Time
CDT
Tmp

°C
App
Tmp
°C
Dew
Point
°C
Rel
Hum
%
Delta-T

°C
Wind Press
QNH
hPa
Press
MSL
hPa
Rain
since
9 am
mm
Dir
 
Spd
km/h
Gust
km/h
Spd
kts
Gust
kts
17/11:30pm 15.1 13.0 8.1 63 3.5 E 9 11 5 6 - - 0.0
17/11:00pm 15.2 13.0 7.7 61 3.7 E 9 15 5 8 - - 0.0
17/10:30pm 15.6 15.1 7.9 60 3.9 CALM 0 0 0 0 - - 0.0
17/10:00pm 15.9 15.0 7.7 58 4.1 SE 2 2 1 1 - - 0.0
17/09:30pm 16.6 15.0 7.8 56 4.4 SSW 6 6 3 3 - - 0.0
17/09:00pm 17.0 14.7 7.4 53 4.8 SW 9 13 5 7 - - 0.0
17/08:30pm 17.5 15.2 7.3 51 5.1 SW 9 15 5 8 - - 0.0
17/08:00pm 18.9 16.0 6.7 45 6.1 SSW 11 17 6 9 - - 0.0
17/07:30pm 20.1 17.2 6.5 41 6.8 SW 11 17 6 9 - - 0.0
17/07:00pm 20.6 18.3 5.8 38 7.4 SW 7 13 4 7 - - 0.0
17/06:30pm 20.9 18.6 5.7 37 7.6 SSW 7 11 4 6 - - 0.0
17/06:00pm 20.2 17.2 6.2 40 7.0 SW 11 20 6 11 - - 0.0
17/05:30pm 20.9 17.9 6.1 38 7.4 SW 11 19 6 10 - - 0.0
17/05:00pm 20.6 17.5 5.4 37 7.5 WSW 11 20 6 11 - - 0.0
17/04:30pm 21.9 19.1 5.3 34 8.3 WSW 9 20 5 11 - - 0.0
17/04:00pm 21.1 17.4 4.2 33 8.2 W 13 20 7 11 - - 0.0
17/03:30pm 21.2 18.5 3.9 32 8.3 SW 7 15 4 8 - - 0.0
17/03:00pm 21.1 18.1 4.2 33 8.2 SSW 9 17 5 9 - - 0.0
17/02:30pm 20.9 17.8 3.6 32 8.3 WNW 9 24 5 13 - - 0.0
17/02:00pm 19.6 16.7 2.5 32 7.9 NW 7 17 4 9 - - 0.0
17/01:30pm 19.7 16.4 2.6 32 8.0 W 9 17 5 9 - - 0.0
17/01:00pm 19.5 16.2 2.4 32 7.9 NW 9 19 5 10 - - 0.0
17/12:30pm 19.3 15.6 2.6 33 7.7 W 11 17 6 9 - - 0.0
17/12:00pm 18.0 14.9 5.6 44 6.0 W 11 19 6 10 - - 0.0
17/11:30am 18.1 14.6 5.3 43 6.2 W 13 20 7 11 - - 0.0
17/11:00am 18.6 15.8 5.1 41 6.5 WSW 9 19 5 10 - - 0.0
17/10:30am 17.8 14.6 5.1 43 6.1 WNW 11 17 6 9 - - 0.0
17/10:00am 17.6 14.4 4.9 43 6.1 W 11 19 6 10 - - 0.0
17/09:30am 17.4 15.0 5.4 45 5.8 WNW 7 13 4 7 - - 0.0
17/09:00am 16.7 14.6 5.6 48 5.4 SSW 6 11 3 6 - - 0.0
17/08:30am 16.9 14.6 4.9 45 5.7 S 6 9 3 5 - - 0.0
17/08:00am 16.3 14.3 6.4 52 4.8 SE 6 9 3 5 - - 0.0
17/07:30am 15.5 13.5 6.2 54 4.5 SE 6 7 3 4 - - 0.0
17/07:00am 13.9 11.8 6.0 59 3.8 ESE 6 7 3 4 - - 0.0
17/06:30am 12.2 10.1 6.0 66 2.9 ESE 6 6 3 3 - - 0.0
17/06:00am 11.0 9.2 5.5 69 2.5 ESE 4 6 2 3 - - 0.0
17/05:30am 11.5 9.7 5.6 67 2.7 E 4 6 2 3 - - 0.0
17/05:00am 11.5 9.4 5.8 68 2.7 ESE 6 7 3 4 - - 0.0
17/04:30am 12.0 9.9 5.9 66 2.9 ESE 6 7 3 4 - - 0.0
17/04:00am 12.4 10.7 5.8 64 3.1 ESE 4 6 2 3 - - 0.0
17/03:30am 12.3 10.6 5.9 65 3.0 SE 4 6 2 3 - - 0.0
17/03:00am 12.0 9.9 5.6 65 3.0 ESE 6 9 3 5 - - 0.0
17/02:30am 12.0 10.2 5.4 64 3.1 ESE 4 7 2 4 - - 0.0
17/02:00am 12.3 10.2 5.7 64 3.1 SE 6 6 3 3 - - 0.0
17/01:30am 12.4 10.1 5.6 63 3.2 SE 7 11 4 6 - - 0.0
17/01:00am 12.9 10.2 5.8 62 3.3 SSE 9 13 5 7 - - 0.0
17/12:30am 13.2 10.9 5.9 61 3.5 SSE 7 11 4 6 - - 0.0
17/12:00am 13.9 11.7 6.0 59 3.8 S 7 11 4 6 - - 0.0
 
Date/Time
CDT
Tmp

°C
App
Tmp
°C
Dew
Point
°C
Rel
Hum
%
Delta-T

°C
Wind Press
QNH
hPa
Press
MSL
hPa
Rain
since
9 am
mm
Dir
 
Spd
km/h
Gust
km/h
Spd
kts
Gust
kts
16/11:30pm 14.3 11.3 5.9 57 4.0 S 11 17 6 9 - - 0.0
16/11:00pm 14.6 11.2 5.7 55 4.2 S 13 20 7 11 - - 0.0
16/10:30pm 15.1 12.0 5.6 53 4.5 S 11 20 6 11 - - 0.0
16/10:00pm 15.6 12.4 4.9 49 5.1 S 11 20 6 11 - - 0.0
16/09:30pm 16.2 12.1 4.6 46 5.5 S 15 22 8 12 - - 0.0
16/09:00pm 16.8 13.2 4.8 45 5.7 SSW 13 24 7 13 - - 0.0
16/08:30pm 17.5 12.8 5.1 44 6.0 SW 19 30 10 16 - - 0.0
16/08:00pm 17.8 13.0 5.4 44 6.0 SW 20 37 11 20 - - 0.0
16/07:30pm 17.8 13.2 6.7 48 5.5 WSW 20 37 11 20 - - 0.0
16/07:00pm 18.6 14.5 8.0 50 5.4 WSW 19 30 10 16 - - 0.0
16/06:30pm 19.1 14.3 8.7 51 5.4 WSW 24 37 13 20 - - 0.0
16/06:00pm 19.4 13.5 9.0 51 5.5 WSW 30 43 16 23 - - 0.0
16/05:30pm 20.4 14.9 9.3 49 5.9 WSW 28 39 15 21 - - 0.0
16/05:02pm 20.0 13.9 8.4 47 6.1 W 30 54 16 29 - - 0.0
16/05:00pm 20.4 14.5 9.0 48 6.0 W 30 46 16 25 - - 0.0
16/04:30pm 20.3 14.4 7.7 44 6.5 W 28 44 15 24 - - 0.0
16/04:06pm 20.5 13.7 9.1 48 6.0 W 35 54 19 29 - - 0.0
16/04:00pm 20.0 12.6 8.4 47 6.1 W 37 54 20 29 - - 0.0
16/03:30pm 20.2 13.1 7.9 45 6.4 W 35 56 19 30 - - 0.0
16/03:28pm 20.4 13.1 7.4 43 6.7 W 35 56 19 30 - - 0.0
16/03:00pm 21.0 14.6 8.6 45 6.5 W 32 46 17 25 - - 0.0
16/02:30pm 21.3 14.9 8.6 44 6.7 W 32 50 17 27 - - 0.0
16/02:00pm 21.0 15.3 9.9 49 6.0 W 30 48 16 26 - - 0.0
16/01:30pm 21.5 15.1 8.7 44 6.8 W 32 52 17 28 - - 0.0
16/01:05pm 20.8 14.6 10.0 50 5.8 W 33 52 18 28 - - 0.0
16/01:00pm 20.2 13.5 9.7 51 5.6 W 35 50 19 27 - - 0.0
16/12:45pm 19.1 13.8 11.2 60 4.3 W 30 50 16 27 - - 0.0
16/12:30pm 18.4 15.3 13.5 73 2.8 W 22 33 12 18 - - 0.0
16/12:14pm 18.5 15.2 12.7 69 3.3 WNW 22 52 12 28 - - 0.0
16/12:00pm 20.6 17.6 12.6 60 4.5 NW 20 28 11 15 - - 0.0
16/11:30am 20.5 18.1 12.7 61 4.4 WNW 17 26 9 14 - - 0.0
16/11:00am 20.1 17.8 13.1 64 4.0 NW 17 28 9 15 - - 0.0
16/10:30am 20.2 18.0 14.3 69 3.4 NW 19 28 10 15 - - 0.0
16/10:00am 19.2 16.8 13.8 71 3.1 NW 19 24 10 13 - - 0.0
16/09:30am 19.2 17.2 13.8 71 3.1 WNW 17 28 9 15 - - 0.0
16/09:00am 19.2 16.5 13.6 70 3.2 WNW 20 35 11 19 - - 0.0
16/08:30am 19.1 16.3 13.3 69 3.3 NW 20 32 11 17 - - 0.0
16/08:00am 18.7 16.1 13.1 70 3.2 WNW 19 28 10 15 - - 0.0
16/07:30am 17.3 15.1 13.4 78 2.2 NNW 17 24 9 13 - - 0.0
16/07:00am 16.8 15.9 12.5 76 2.4 NNW 9 15 5 8 - - 0.0
16/06:30am 15.9 15.1 11.7 76 2.3 NNW 7 13 4 7 - - 0.0
16/06:00am 14.9 14.1 10.9 77 2.1 NNE 6 7 3 4 - - 0.0
16/05:30am 15.1 14.1 10.9 76 2.2 NNE 7 13 4 7 - - 0.0
16/05:00am 14.8 12.5 10.4 75 2.3 NNE 13 19 7 10 - - 0.0
16/04:30am 14.4 11.3 10.2 76 2.2 NE 17 26 9 14 - - 0.0
16/04:00am 14.2 12.2 10.0 76 2.2 NNE 11 13 6 7 - - 0.0
16/03:30am 13.7 12.3 9.6 76 2.1 NNE 7 9 4 5 - - 0.0
16/03:00am 13.3 12.4 9.2 76 2.1 NE 4 6 2 3 - - 0.0
16/02:30am 13.3 12.1 9.4 77 2.0 E 6 7 3 4 - - 0.0
16/02:00am 13.7 12.3 9.7 77 2.1 ESE 7 9 4 5 - - 0.0
16/01:30am 14.0 11.9 9.8 76 2.2 ESE 11 15 6 8 - - 0.0
16/01:00am 14.2 12.9 9.8 75 2.3 ESE 7 11 4 6 - - 0.0
16/12:30am 14.6 12.6 10.0 74 2.4 E 11 17 6 9 - - 0.0
16/12:00am 14.7 12.6 9.9 73 2.5 E 11 19 6 10 - - 0.0
 
Date/Time
CDT
Tmp

°C
App
Tmp
°C
Dew
Point
°C
Rel
Hum
%
Delta-T

°C
Wind Press
QNH
hPa
Press
MSL
hPa
Rain
since
9 am
mm
Dir
 
Spd
km/h
Gust
km/h
Spd
kts
Gust
kts
15/11:30pm 15.0 13.0 10.0 72 2.6 ENE 11 17 6 9 - - 0.0
15/11:00pm 15.4 13.0 10.0 70 2.8 E 13 19 7 10 - - 0.0
15/10:30pm 15.9 13.9 10.0 68 3.1 E 11 15 6 8 - - 0.0
15/10:00pm 16.4 13.9 9.8 65 3.5 ESE 13 20 7 11 - - 0.0
15/09:30pm 17.2 15.1 9.9 62 3.9 ESE 11 19 6 10 - - 0.0
15/09:00pm 18.0 15.2 9.9 59 4.3 SE 15 20 8 11 - - 0.0
15/08:30pm 19.1 16.3 9.9 55 4.9 SE 15 20 8 11 - - 0.0
15/08:00pm 21.2 18.4 10.1 49 6.0 SSE 15 20 8 11 - - 0.0
15/07:30pm 23.1 20.7 10.2 44 7.1 SSE 13 19 7 10 - - 0.0
15/07:00pm 24.4 22.0 9.9 40 8.0 SSW 13 26 7 14 - - 0.0

Latest Capital City Observations: Canberra | Sydney | Melbourne | Brisbane | Adelaide | Perth | Hobart | Darwin

Other Formats:

Comma delimited format used in spreadsheet applications
http://www.bom.gov.au/fwo/IDS60901/IDS60901.94808.axf

JavaScript Object Notation format (JSON) in row-major order
http://www.bom.gov.au/fwo/IDS60901/IDS60901.94808.json